sensor_id;sensor_type;location;lat;lon;timestamp;pressure;altitude;pressure_sealevel;temperature;humidity
45050;BME280;61798;48.048;-1.928;2023-04-20T00:00:32;100763.81;;;10.11;100.00
45050;BME280;61798;48.048;-1.928;2023-04-20T00:02:39;100777.66;;;10.14;100.00
45050;BME280;61798;48.048;-1.928;2023-04-20T00:04:47;100774.25;;;10.05;100.00
45050;BME280;61798;48.048;-1.928;2023-04-20T00:06:54;100764.94;;;10.01;100.00
45050;BME280;61798;48.048;-1.928;2023-04-20T00:09:07;100778.16;;;10.03;100.00
45050;BME280;61798;48.048;-1.928;2023-04-20T00:11:14;100770.13;;;10.03;100.00
45050;BME280;61798;48.048;-1.928;2023-04-20T00:13:21;100767.31;;;9.96;100.00
45050;BME280;61798;48.048;-1.928;2023-04-20T00:15:28;100753.09;;;9.96;100.00
45050;BME280;61798;48.048;-1.928;2023-04-20T00:17:37;100752.13;;;9.81;100.00
45050;BME280;61798;48.048;-1.928;2023-04-20T00:19:45;100766.88;;;9.92;100.00
45050;BME280;61798;48.048;-1.928;2023-04-20T00:21:51;100749.44;;;9.81;100.00
45050;BME280;61798;48.048;-1.928;2023-04-20T00:23:59;100760.06;;;9.90;100.00
45050;BME280;61798;48.048;-1.928;2023-04-20T00:26:06;100764.50;;;9.82;100.00
45050;BME280;61798;48.048;-1.928;2023-04-20T00:28:14;100743.63;;;9.62;100.00
45050;BME280;61798;48.048;-1.928;2023-04-20T00:30:22;100763.19;;;9.78;100.00
45050;BME280;61798;48.048;-1.928;2023-04-20T00:32:29;100756.09;;;9.70;100.00
45050;BME280;61798;48.048;-1.928;2023-04-20T00:34:36;100753.03;;;9.73;100.00
45050;BME280;61798;48.048;-1.928;2023-04-20T00:36:43;100736.97;;;9.58;100.00
45050;BME280;61798;48.048;-1.928;2023-04-20T00:38:49;100758.75;;;9.70;100.00
45050;BME280;61798;48.048;-1.928;2023-04-20T00:40:57;100746.31;;;9.62;100.00
45050;BME280;61798;48.048;-1.928;2023-04-20T00:43:11;100756.09;;;9.55;100.00
45050;BME280;61798;48.048;-1.928;2023-04-20T00:45:18;100732.94;;;9.47;100.00
45050;BME280;61798;48.048;-1.928;2023-04-20T00:47:25;100740.75;;;9.49;100.00
45050;BME280;61798;48.048;-1.928;2023-04-20T00:49:32;100751.53;;;9.56;100.00
45050;BME280;61798;48.048;-1.928;2023-04-20T00:51:39;100753.94;;;9.50;100.00
45050;BME280;61798;48.048;-1.928;2023-04-20T00:53:49;100727.19;;;9.35;100.00
45050;BME280;61798;48.048;-1.928;2023-04-20T00:55:56;100738.16;;;9.40;100.00
45050;BME280;61798;48.048;-1.928;2023-04-20T00:58:03;100732.81;;;9.40;100.00
45050;BME280;61798;48.048;-1.928;2023-04-20T01:00:10;100731.16;;;9.39;100.00
45050;BME280;61798;48.048;-1.928;2023-04-20T01:02:20;100732.53;;;9.35;100.00
45050;BME280;61798;48.048;-1.928;2023-04-20T01:04:27;100719.41;;;9.25;100.00
45050;BME280;61798;48.048;-1.928;2023-04-20T01:06:34;100734.56;;;9.33;100.00
45050;BME280;61798;48.048;-1.928;2023-04-20T01:08:49;100731.50;;;9.36;100.00
45050;BME280;61798;48.048;-1.928;2023-04-20T01:10:57;100733.25;;;9.29;100.00
45050;BME280;61798;48.048;-1.928;2023-04-20T01:13:04;100726.88;;;9.15;100.00
45050;BME280;61798;48.048;-1.928;2023-04-20T01:15:11;100738.97;;;9.26;100.00
45050;BME280;61798;48.048;-1.928;2023-04-20T01:17:19;100714.81;;;9.19;100.00
45050;BME280;61798;48.048;-1.928;2023-04-20T01:19:26;100686.81;;;8.91;100.00
45050;BME280;61798;48.048;-1.928;2023-04-20T01:21:34;100703.59;;;9.00;100.00
45050;BME280;61798;48.048;-1.928;2023-04-20T01:23:44;100728.06;;;9.12;100.00
45050;BME280;61798;48.048;-1.928;2023-04-20T01:25:51;100715.31;;;8.99;100.00
45050;BME280;61798;48.048;-1.928;2023-04-20T01:27:58;100722.13;;;9.02;100.00
45050;BME280;61798;48.048;-1.928;2023-04-20T01:30:06;100710.41;;;8.87;100.00
45050;BME280;61798;48.048;-1.928;2023-04-20T01:32:15;100710.94;;;8.83;100.00
45050;BME280;61798;48.048;-1.928;2023-04-20T01:34:22;100713.97;;;8.80;100.00
45050;BME280;61798;48.048;-1.928;2023-04-20T01:36:29;100707.50;;;8.74;100.00
45050;BME280;61798;48.048;-1.928;2023-04-20T01:38:39;100708.03;;;8.69;100.00
45050;BME280;61798;48.048;-1.928;2023-04-20T01:40:47;100727.13;;;8.81;100.00
45050;BME280;61798;48.048;-1.928;2023-04-20T01:42:54;100719.84;;;8.75;100.00
45050;BME280;61798;48.048;-1.928;2023-04-20T01:45:04;100721.31;;;8.77;100.00
45050;BME280;61798;48.048;-1.928;2023-04-20T01:47:11;100715.72;;;8.64;100.00
45050;BME280;61798;48.048;-1.928;2023-04-20T01:49:19;100704.88;;;8.65;100.00
45050;BME280;61798;48.048;-1.928;2023-04-20T01:51:25;100712.56;;;8.60;100.00
45050;BME280;61798;48.048;-1.928;2023-04-20T01:53:33;100711.91;;;8.58;100.00
45050;BME280;61798;48.048;-1.928;2023-04-20T01:55:41;100697.09;;;8.55;100.00
45050;BME280;61798;48.048;-1.928;2023-04-20T01:57:48;100707.78;;;8.55;100.00
45050;BME280;61798;48.048;-1.928;2023-04-20T01:59:55;100701.28;;;8.50;100.00
45050;BME280;61798;48.048;-1.928;2023-04-20T02:02:02;100695.16;;;8.41;100.00
45050;BME280;61798;48.048;-1.928;2023-04-20T02:04:10;100700.03;;;8.37;100.00
45050;BME280;61798;48.048;-1.928;2023-04-20T02:06:17;100711.06;;;8.34;100.00
45050;BME280;61798;48.048;-1.928;2023-04-20T02:08:23;100708.75;;;8.31;100.00
45050;BME280;61798;48.048;-1.928;2023-04-20T02:10:31;100703.94;;;8.26;100.00
45050;BME280;61798;48.048;-1.928;2023-04-20T02:12:38;100716.06;;;8.37;100.00
45050;BME280;61798;48.048;-1.928;2023-04-20T02:14:45;100716.25;;;8.35;100.00
45050;BME280;61798;48.048;-1.928;2023-04-20T02:16:52;100730.34;;;8.44;100.00
45050;BME280;61798;48.048;-1.928;2023-04-20T02:18:59;100700.75;;;8.31;100.00
45050;BME280;61798;48.048;-1.928;2023-04-20T02:21:05;100727.97;;;8.26;100.00
45050;BME280;61798;48.048;-1.928;2023-04-20T02:23:11;100733.50;;;8.16;100.00
45050;BME280;61798;48.048;-1.928;2023-04-20T02:25:19;100721.75;;;8.02;100.00
45050;BME280;61798;48.048;-1.928;2023-04-20T02:27:28;100717.66;;;7.82;100.00
45050;BME280;61798;48.048;-1.928;2023-04-20T02:29:35;100735.50;;;7.82;100.00
45050;BME280;61798;48.048;-1.928;2023-04-20T02:31:42;100735.88;;;7.70;100.00
45050;BME280;61798;48.048;-1.928;2023-04-20T02:33:49;100742.38;;;7.76;100.00
45050;BME280;61798;48.048;-1.928;2023-04-20T02:35:57;100739.16;;;7.81;100.00
45050;BME280;61798;48.048;-1.928;2023-04-20T02:38:04;100748.31;;;7.95;100.00
45050;BME280;61798;48.048;-1.928;2023-04-20T02:40:12;100752.50;;;7.81;100.00
45050;BME280;61798;48.048;-1.928;2023-04-20T02:42:18;100741.50;;;7.84;100.00
45050;BME280;61798;48.048;-1.928;2023-04-20T02:44:27;100745.69;;;7.78;100.00
45050;BME280;61798;48.048;-1.928;2023-04-20T02:46:34;100735.47;;;7.90;100.00
45050;BME280;61798;48.048;-1.928;2023-04-20T02:48:42;100723.00;;;7.82;100.00
45050;BME280;61798;48.048;-1.928;2023-04-20T02:50:49;100739.97;;;7.90;100.00
45050;BME280;61798;48.048;-1.928;2023-04-20T02:52:56;100747.47;;;7.95;100.00
45050;BME280;61798;48.048;-1.928;2023-04-20T02:55:04;100751.97;;;7.94;100.00
45050;BME280;61798;48.048;-1.928;2023-04-20T02:57:12;100758.47;;;8.00;100.00
45050;BME280;61798;48.048;-1.928;2023-04-20T02:59:19;100748.81;;;7.90;100.00
45050;BME280;61798;48.048;-1.928;2023-04-20T03:01:26;100747.88;;;7.75;100.00
45050;BME280;61798;48.048;-1.928;2023-04-20T03:03:32;100707.25;;;7.56;100.00
45050;BME280;61798;48.048;-1.928;2023-04-20T03:05:41;100756.22;;;7.63;100.00
45050;BME280;61798;48.048;-1.928;2023-04-20T03:07:48;100721.13;;;7.34;100.00
45050;BME280;61798;48.048;-1.928;2023-04-20T03:09:55;100746.28;;;7.48;100.00
45050;BME280;61798;48.048;-1.928;2023-04-20T03:12:01;100751.59;;;7.48;100.00
45050;BME280;61798;48.048;-1.928;2023-04-20T03:14:07;100743.63;;;7.15;100.00
45050;BME280;61798;48.048;-1.928;2023-04-20T03:16:15;100723.84;;;6.92;100.00
45050;BME280;61798;48.048;-1.928;2023-04-20T03:18:24;100760.31;;;7.00;100.00
45050;BME280;61798;48.048;-1.928;2023-04-20T03:20:31;100754.44;;;7.05;100.00
45050;BME280;61798;48.048;-1.928;2023-04-20T03:22:38;100740.31;;;6.79;100.00
45050;BME280;61798;48.048;-1.928;2023-04-20T03:24:45;100755.28;;;7.05;100.00
45050;BME280;61798;48.048;-1.928;2023-04-20T03:26:54;100758.44;;;7.26;100.00
45050;BME280;61798;48.048;-1.928;2023-04-20T03:29:01;100758.78;;;7.31;100.00
45050;BME280;61798;48.048;-1.928;2023-04-20T03:31:08;100739.44;;;7.29;100.00
45050;BME280;61798;48.048;-1.928;2023-04-20T03:33:15;100748.47;;;7.36;100.00
45050;BME280;61798;48.048;-1.928;2023-04-20T03:35:21;100738.78;;;7.27;100.00
45050;BME280;61798;48.048;-1.928;2023-04-20T03:37:29;100735.97;;;7.20;100.00
45050;BME280;61798;48.048;-1.928;2023-04-20T03:39:35;100750.94;;;7.29;100.00
45050;BME280;61798;48.048;-1.928;2023-04-20T03:41:42;100717.13;;;7.05;100.00
45050;BME280;61798;48.048;-1.928;2023-04-20T03:43:49;100698.00;;;6.93;100.00
45050;BME280;61798;48.048;-1.928;2023-04-20T03:45:56;100693.84;;;6.90;100.00
45050;BME280;61798;48.048;-1.928;2023-04-20T03:48:03;100693.69;;;6.83;100.00
45050;BME280;61798;48.048;-1.928;2023-04-20T03:50:10;100727.00;;;7.04;100.00
45050;BME280;61798;48.048;-1.928;2023-04-20T03:52:18;100704.00;;;6.86;100.00
45050;BME280;61798;48.048;-1.928;2023-04-20T03:54:25;100742.63;;;7.07;100.00
45050;BME280;61798;48.048;-1.928;2023-04-20T03:56:33;100750.44;;;7.09;100.00
45050;BME280;61798;48.048;-1.928;2023-04-20T03:58:40;100716.16;;;6.89;100.00
45050;BME280;61798;48.048;-1.928;2023-04-20T04:00:47;100734.81;;;7.06;100.00
45050;BME280;61798;48.048;-1.928;2023-04-20T04:02:54;100720.66;;;6.89;100.00
45050;BME280;61798;48.048;-1.928;2023-04-20T04:05:04;100737.66;;;6.96;100.00
45050;BME280;61798;48.048;-1.928;2023-04-20T04:07:12;100711.66;;;6.81;100.00
45050;BME280;61798;48.048;-1.928;2023-04-20T04:09:19;100732.81;;;6.91;100.00
45050;BME280;61798;48.048;-1.928;2023-04-20T04:11:25;100745.28;;;6.91;100.00
45050;BME280;61798;48.048;-1.928;2023-04-20T04:13:35;100731.31;;;6.80;100.00
45050;BME280;61798;48.048;-1.928;2023-04-20T04:15:43;100735.63;;;6.90;100.00
45050;BME280;61798;48.048;-1.928;2023-04-20T04:17:49;100733.66;;;6.92;100.00
45050;BME280;61798;48.048;-1.928;2023-04-20T04:19:56;100744.31;;;6.92;100.00
45050;BME280;61798;48.048;-1.928;2023-04-20T04:22:03;100712.81;;;6.79;100.00
45050;BME280;61798;48.048;-1.928;2023-04-20T04:24:10;100687.69;;;6.56;100.00
45050;BME280;61798;48.048;-1.928;2023-04-20T04:26:19;100712.47;;;6.73;100.00
45050;BME280;61798;48.048;-1.928;2023-04-20T04:28:30;100728.97;;;6.85;100.00
45050;BME280;61798;48.048;-1.928;2023-04-20T04:30:38;100724.97;;;6.81;100.00
45050;BME280;61798;48.048;-1.928;2023-04-20T04:32:46;100728.66;;;6.89;100.00
45050;BME280;61798;48.048;-1.928;2023-04-20T04:34:55;100716.97;;;6.81;100.00
45050;BME280;61798;48.048;-1.928;2023-04-20T04:37:03;100724.16;;;6.81;100.00
45050;BME280;61798;48.048;-1.928;2023-04-20T04:39:10;100711.66;;;6.73;100.00
45050;BME280;61798;48.048;-1.928;2023-04-20T04:41:18;100709.31;;;6.70;100.00
45050;BME280;61798;48.048;-1.928;2023-04-20T04:43:26;100727.97;;;6.78;100.00
45050;BME280;61798;48.048;-1.928;2023-04-20T04:45:39;100726.28;;;6.77;100.00
45050;BME280;61798;48.048;-1.928;2023-04-20T04:47:46;100727.31;;;6.76;100.00
45050;BME280;61798;48.048;-1.928;2023-04-20T04:49:53;100716.31;;;6.71;100.00
45050;BME280;61798;48.048;-1.928;2023-04-20T04:52:01;100709.00;;;6.64;100.00
45050;BME280;61798;48.048;-1.928;2023-04-20T04:54:08;100722.97;;;6.75;100.00
45050;BME280;61798;48.048;-1.928;2023-04-20T04:56:15;100719.63;;;6.73;100.00
45050;BME280;61798;48.048;-1.928;2023-04-20T04:58:24;100708.66;;;6.59;100.00
45050;BME280;61798;48.048;-1.928;2023-04-20T05:00:31;100713.00;;;6.60;100.00
45050;BME280;61798;48.048;-1.928;2023-04-20T05:02:37;100717.63;;;6.58;100.00
45050;BME280;61798;48.048;-1.928;2023-04-20T05:04:45;100732.13;;;6.64;100.00
45050;BME280;61798;48.048;-1.928;2023-04-20T05:06:51;100725.13;;;6.63;100.00
45050;BME280;61798;48.048;-1.928;2023-04-20T05:08:58;100720.59;;;6.47;100.00
45050;BME280;61798;48.048;-1.928;2023-04-20T05:11:04;100728.47;;;6.57;100.00
45050;BME280;61798;48.048;-1.928;2023-04-20T05:13:10;100738.09;;;6.58;100.00
45050;BME280;61798;48.048;-1.928;2023-04-20T05:15:17;100701.59;;;6.24;100.00
45050;BME280;61798;48.048;-1.928;2023-04-20T05:17:23;100722.13;;;6.41;100.00
45050;BME280;61798;48.048;-1.928;2023-04-20T05:19:29;100697.09;;;6.25;100.00
45050;BME280;61798;48.048;-1.928;2023-04-20T05:21:35;100723.59;;;6.35;100.00
45050;BME280;61798;48.048;-1.928;2023-04-20T05:23:43;100731.41;;;6.37;100.00
45050;BME280;61798;48.048;-1.928;2023-04-20T05:25:49;100737.59;;;6.54;100.00
45050;BME280;61798;48.048;-1.928;2023-04-20T05:27:55;100721.91;;;6.34;100.00
45050;BME280;61798;48.048;-1.928;2023-04-20T05:30:02;100707.59;;;6.27;100.00
45050;BME280;61798;48.048;-1.928;2023-04-20T05:32:08;100738.59;;;6.44;100.00
45050;BME280;61798;48.048;-1.928;2023-04-20T05:34:15;100728.25;;;6.41;100.00
45050;BME280;61798;48.048;-1.928;2023-04-20T05:36:21;100730.41;;;6.46;100.00
45050;BME280;61798;48.048;-1.928;2023-04-20T05:38:27;100726.59;;;6.40;100.00
45050;BME280;61798;48.048;-1.928;2023-04-20T05:40:34;100728.75;;;6.45;100.00
45050;BME280;61798;48.048;-1.928;2023-04-20T05:42:41;100719.59;;;6.39;100.00
45050;BME280;61798;48.048;-1.928;2023-04-20T05:44:49;100724.91;;;6.39;100.00
45050;BME280;61798;48.048;-1.928;2023-04-20T05:46:56;100721.75;;;6.36;100.00
45050;BME280;61798;48.048;-1.928;2023-04-20T05:49:03;100733.25;;;6.36;100.00
45050;BME280;61798;48.048;-1.928;2023-04-20T05:51:10;100718.22;;;6.27;100.00
45050;BME280;61798;48.048;-1.928;2023-04-20T05:53:17;100678.72;;;6.05;100.00
45050;BME280;61798;48.048;-1.928;2023-04-20T05:55:24;100735.56;;;6.39;100.00
45050;BME280;61798;48.048;-1.928;2023-04-20T05:57:32;100731.72;;;6.33;100.00
45050;BME280;61798;48.048;-1.928;2023-04-20T05:59:41;100720.25;;;6.33;100.00
45050;BME280;61798;48.048;-1.928;2023-04-20T06:01:49;100725.25;;;6.36;100.00
45050;BME280;61798;48.048;-1.928;2023-04-20T06:03:56;100726.09;;;6.37;100.00
45050;BME280;61798;48.048;-1.928;2023-04-20T06:06:04;100734.25;;;6.43;100.00
45050;BME280;61798;48.048;-1.928;2023-04-20T06:08:12;100722.13;;;6.41;100.00
45050;BME280;61798;48.048;-1.928;2023-04-20T06:10:19;100722.63;;;6.44;100.00
45050;BME280;61798;48.048;-1.928;2023-04-20T06:12:27;100722.91;;;6.41;100.00
45050;BME280;61798;48.048;-1.928;2023-04-20T06:14:38;100696.47;;;6.31;100.00
45050;BME280;61798;48.048;-1.928;2023-04-20T06:16:46;100717.28;;;6.44;100.00
45050;BME280;61798;48.048;-1.928;2023-04-20T06:18:53;100705.59;;;6.37;100.00
45050;BME280;61798;48.048;-1.928;2023-04-20T06:21:00;100706.13;;;6.41;100.00
45050;BME280;61798;48.048;-1.928;2023-04-20T06:23:07;100719.94;;;6.53;100.00
45050;BME280;61798;48.048;-1.928;2023-04-20T06:25:14;100714.63;;;6.53;100.00
45050;BME280;61798;48.048;-1.928;2023-04-20T06:27:22;100722.13;;;6.66;100.00
45050;BME280;61798;48.048;-1.928;2023-04-20T06:29:28;100718.31;;;6.69;100.00
45050;BME280;61798;48.048;-1.928;2023-04-20T06:31:34;100723.47;;;6.70;100.00
45050;BME280;61798;48.048;-1.928;2023-04-20T06:33:41;100723.13;;;6.73;100.00
45050;BME280;61798;48.048;-1.928;2023-04-20T06:35:49;100715.00;;;6.75;100.00
45050;BME280;61798;48.048;-1.928;2023-04-20T06:37:58;100720.81;;;6.87;100.00
45050;BME280;61798;48.048;-1.928;2023-04-20T06:40:06;100726.00;;;6.89;100.00
45050;BME280;61798;48.048;-1.928;2023-04-20T06:42:15;100725.31;;;6.86;100.00
45050;BME280;61798;48.048;-1.928;2023-04-20T06:44:23;100725.47;;;6.93;100.00
45050;BME280;61798;48.048;-1.928;2023-04-20T06:46:31;100714.31;;;6.90;100.00
45050;BME280;61798;48.048;-1.928;2023-04-20T06:48:38;100720.66;;;6.89;100.00
45050;BME280;61798;48.048;-1.928;2023-04-20T06:50:49;100724.97;;;7.06;100.00
45050;BME280;61798;48.048;-1.928;2023-04-20T06:52:57;100689.69;;;6.87;100.00
45050;BME280;61798;48.048;-1.928;2023-04-20T06:55:04;100705.34;;;7.07;100.00
45050;BME280;61798;48.048;-1.928;2023-04-20T06:57:11;100715.16;;;7.15;100.00
45050;BME280;61798;48.048;-1.928;2023-04-20T06:59:18;100692.34;;;7.04;100.00
45050;BME280;61798;48.048;-1.928;2023-04-20T07:01:26;100696.66;;;7.14;100.00
45050;BME280;61798;48.048;-1.928;2023-04-20T07:03:35;100676.03;;;6.99;100.00
45050;BME280;61798;48.048;-1.928;2023-04-20T07:05:43;100693.97;;;7.22;100.00
45050;BME280;61798;48.048;-1.928;2023-04-20T07:07:50;100695.47;;;7.25;100.00
45050;BME280;61798;48.048;-1.928;2023-04-20T07:09:57;100674.84;;;7.18;100.00
45050;BME280;61798;48.048;-1.928;2023-04-20T07:12:03;100696.97;;;7.27;100.00
45050;BME280;61798;48.048;-1.928;2023-04-20T07:14:09;100688.97;;;7.36;100.00
45050;BME280;61798;48.048;-1.928;2023-04-20T07:16:16;100651.34;;;7.14;100.00
45050;BME280;61798;48.048;-1.928;2023-04-20T07:18:23;100687.56;;;7.57;100.00
45050;BME280;61798;48.048;-1.928;2023-04-20T07:20:30;100665.75;;;7.45;100.00
45050;BME280;61798;48.048;-1.928;2023-04-20T07:22:38;100669.78;;;7.40;100.00
45050;BME280;61798;48.048;-1.928;2023-04-20T07:24:45;100696.88;;;7.61;100.00
45050;BME280;61798;48.048;-1.928;2023-04-20T07:26:52;100677.88;;;7.64;100.00
45050;BME280;61798;48.048;-1.928;2023-04-20T07:29:01;100668.03;;;7.65;100.00
45050;BME280;61798;48.048;-1.928;2023-04-20T07:31:08;100684.81;;;7.82;100.00
45050;BME280;61798;48.048;-1.928;2023-04-20T07:33:15;100679.72;;;7.64;100.00
45050;BME280;61798;48.048;-1.928;2023-04-20T07:35:23;100698.19;;;7.74;100.00
45050;BME280;61798;48.048;-1.928;2023-04-20T07:37:30;100685.03;;;7.72;100.00
45050;BME280;61798;48.048;-1.928;2023-04-20T07:39:39;100685.41;;;7.92;100.00
45050;BME280;61798;48.048;-1.928;2023-04-20T07:41:47;100681.84;;;8.09;100.00
45050;BME280;61798;48.048;-1.928;2023-04-20T07:43:54;100674.09;;;7.90;100.00
45050;BME280;61798;48.048;-1.928;2023-04-20T07:46:02;100662.19;;;8.01;100.00
45050;BME280;61798;48.048;-1.928;2023-04-20T07:48:09;100682.28;;;8.21;100.00
45050;BME280;61798;48.048;-1.928;2023-04-20T07:50:18;100667.88;;;8.30;100.00
45050;BME280;61798;48.048;-1.928;2023-04-20T07:52:25;100676.94;;;8.21;100.00
45050;BME280;61798;48.048;-1.928;2023-04-20T07:54:32;100691.38;;;8.35;100.00
45050;BME280;61798;48.048;-1.928;2023-04-20T07:56:39;100673.38;;;8.29;100.00
45050;BME280;61798;48.048;-1.928;2023-04-20T07:58:46;100690.84;;;8.40;100.00
45050;BME280;61798;48.048;-1.928;2023-04-20T08:00:53;100695.19;;;8.64;100.00
45050;BME280;61798;48.048;-1.928;2023-04-20T08:03:00;100660.34;;;8.57;100.00
45050;BME280;61798;48.048;-1.928;2023-04-20T08:05:08;100693.97;;;8.75;100.00
45050;BME280;61798;48.048;-1.928;2023-04-20T08:07:16;100691.88;;;8.86;100.00
45050;BME280;61798;48.048;-1.928;2023-04-20T08:09:23;100691.00;;;8.70;100.00
45050;BME280;61798;48.048;-1.928;2023-04-20T08:11:32;100663.91;;;8.50;100.00
45050;BME280;61798;48.048;-1.928;2023-04-20T08:13:39;100681.06;;;8.79;100.00
45050;BME280;61798;48.048;-1.928;2023-04-20T08:15:47;100677.16;;;9.05;100.00
45050;BME280;61798;48.048;-1.928;2023-04-20T08:17:54;100663.31;;;8.86;100.00
45050;BME280;61798;48.048;-1.928;2023-04-20T08:20:01;100658.97;;;8.85;100.00
45050;BME280;61798;48.048;-1.928;2023-04-20T08:22:08;100685.09;;;9.14;100.00
45050;BME280;61798;48.048;-1.928;2023-04-20T08:24:18;100693.81;;;9.31;100.00
45050;BME280;61798;48.048;-1.928;2023-04-20T08:26:26;100682.34;;;9.37;100.00
45050;BME280;61798;48.048;-1.928;2023-04-20T08:28:35;100688.53;;;9.23;100.00
45050;BME280;61798;48.048;-1.928;2023-04-20T08:30:43;100690.75;;;9.34;100.00
45050;BME280;61798;48.048;-1.928;2023-04-20T08:32:49;100682.66;;;9.27;100.00
45050;BME280;61798;48.048;-1.928;2023-04-20T08:34:57;100672.75;;;9.28;100.00
45050;BME280;61798;48.048;-1.928;2023-04-20T08:37:02;100677.09;;;9.29;100.00
45050;BME280;61798;48.048;-1.928;2023-04-20T08:39:12;100659.03;;;9.31;100.00
45050;BME280;61798;48.048;-1.928;2023-04-20T08:41:18;100673.56;;;9.13;100.00
45050;BME280;61798;48.048;-1.928;2023-04-20T08:43:25;100681.34;;;9.38;100.00
45050;BME280;61798;48.048;-1.928;2023-04-20T08:45:32;100664.91;;;9.57;100.00
45050;BME280;61798;48.048;-1.928;2023-04-20T08:47:39;100644.34;;;9.57;100.00
45050;BME280;61798;48.048;-1.928;2023-04-20T08:49:47;100681.75;;;10.03;100.00
45050;BME280;61798;48.048;-1.928;2023-04-20T08:51:57;100682.03;;;9.93;100.00
45050;BME280;61798;48.048;-1.928;2023-04-20T08:54:06;100652.75;;;9.54;100.00
45050;BME280;61798;48.048;-1.928;2023-04-20T08:56:12;100680.88;;;9.65;100.00
45050;BME280;61798;48.048;-1.928;2023-04-20T08:58:18;100649.41;;;9.82;100.00
45050;BME280;61798;48.048;-1.928;2023-04-20T09:00:25;100609.47;;;9.66;100.00
45050;BME280;61798;48.048;-1.928;2023-04-20T09:02:31;100669.19;;;10.03;100.00
45050;BME280;61798;48.048;-1.928;2023-04-20T09:04:39;100661.28;;;9.95;100.00
45050;BME280;61798;48.048;-1.928;2023-04-20T09:06:46;100666.38;;;10.12;100.00
45050;BME280;61798;48.048;-1.928;2023-04-20T09:08:55;100647.53;;;9.98;100.00
45050;BME280;61798;48.048;-1.928;2023-04-20T09:11:01;100641.00;;;10.08;100.00
45050;BME280;61798;48.048;-1.928;2023-04-20T09:13:09;100663.88;;;10.25;100.00
45050;BME280;61798;48.048;-1.928;2023-04-20T09:15:30;100673.03;;;10.16;100.00
45050;BME280;61798;48.048;-1.928;2023-04-20T09:17:37;100678.31;;;10.09;100.00
45050;BME280;61798;48.048;-1.928;2023-04-20T09:19:52;100655.94;;;10.17;100.00
45050;BME280;61798;48.048;-1.928;2023-04-20T09:21:59;100656.41;;;10.65;100.00
45050;BME280;61798;48.048;-1.928;2023-04-20T09:24:09;100653.56;;;10.66;100.00
45050;BME280;61798;48.048;-1.928;2023-04-20T09:26:18;100660.69;;;10.59;100.00
45050;BME280;61798;48.048;-1.928;2023-04-20T09:28:34;100652.81;;;10.79;100.00
45050;BME280;61798;48.048;-1.928;2023-04-20T09:30:45;100663.97;;;10.54;100.00
45050;BME280;61798;48.048;-1.928;2023-04-20T09:33:10;100661.34;;;10.61;100.00
45050;BME280;61798;48.048;-1.928;2023-04-20T09:35:22;100648.16;;;10.44;100.00
45050;BME280;61798;48.048;-1.928;2023-04-20T09:37:28;100657.59;;;10.84;100.00
45050;BME280;61798;48.048;-1.928;2023-04-20T09:39:39;100627.63;;;10.52;100.00
45050;BME280;61798;48.048;-1.928;2023-04-20T09:41:49;100630.25;;;10.45;100.00
45050;BME280;61798;48.048;-1.928;2023-04-20T09:43:56;100655.28;;;10.74;100.00
45050;BME280;61798;48.048;-1.928;2023-04-20T09:46:04;100621.00;;;10.47;100.00
45050;BME280;61798;48.048;-1.928;2023-04-20T09:48:10;100662.28;;;11.04;100.00
45050;BME280;61798;48.048;-1.928;2023-04-20T09:50:18;100665.63;;;11.06;100.00
45050;BME280;61798;48.048;-1.928;2023-04-20T09:52:25;100646.34;;;10.96;100.00
45050;BME280;61798;48.048;-1.928;2023-04-20T09:54:32;100642.50;;;11.05;100.00
45050;BME280;61798;48.048;-1.928;2023-04-20T09:56:38;100651.84;;;11.16;100.00
45050;BME280;61798;48.048;-1.928;2023-04-20T09:58:45;100643.81;;;10.87;100.00
45050;BME280;61798;48.048;-1.928;2023-04-20T10:00:51;100618.50;;;11.26;100.00
45050;BME280;61798;48.048;-1.928;2023-04-20T10:02:58;100656.06;;;11.32;100.00
45050;BME280;61798;48.048;-1.928;2023-04-20T10:05:06;100639.41;;;11.44;100.00
45050;BME280;61798;48.048;-1.928;2023-04-20T10:07:22;100646.06;;;11.55;100.00
45050;BME280;61798;48.048;-1.928;2023-04-20T10:09:28;100638.06;;;11.62;100.00
45050;BME280;61798;48.048;-1.928;2023-04-20T10:11:37;100636.88;;;11.78;100.00
45050;BME280;61798;48.048;-1.928;2023-04-20T10:13:47;100632.66;;;11.55;100.00
45050;BME280;61798;48.048;-1.928;2023-04-20T10:15:53;100626.84;;;11.51;100.00
45050;BME280;61798;48.048;-1.928;2023-04-20T10:17:59;100629.13;;;11.55;100.00
45050;BME280;61798;48.048;-1.928;2023-04-20T10:20:26;100635.31;;;12.11;100.00
45050;BME280;61798;48.048;-1.928;2023-04-20T10:22:33;100621.66;;;11.99;100.00
45050;BME280;61798;48.048;-1.928;2023-04-20T10:24:40;100595.22;;;11.40;100.00
45050;BME280;61798;48.048;-1.928;2023-04-20T10:26:46;100637.34;;;12.02;100.00
45050;BME280;61798;48.048;-1.928;2023-04-20T10:28:53;100621.53;;;12.21;100.00
45050;BME280;61798;48.048;-1.928;2023-04-20T10:30:58;100621.28;;;12.16;100.00
45050;BME280;61798;48.048;-1.928;2023-04-20T10:33:11;100630.59;;;12.27;100.00
45050;BME280;61798;48.048;-1.928;2023-04-20T10:35:18;100607.06;;;12.29;100.00
45050;BME280;61798;48.048;-1.928;2023-04-20T10:37:24;100608.09;;;12.35;100.00
45050;BME280;61798;48.048;-1.928;2023-04-20T10:39:31;100633.13;;;12.49;100.00
45050;BME280;61798;48.048;-1.928;2023-04-20T10:41:37;100625.88;;;12.70;100.00
45050;BME280;61798;48.048;-1.928;2023-04-20T10:43:44;100615.53;;;12.46;100.00
45050;BME280;61798;48.048;-1.928;2023-04-20T10:45:50;100617.19;;;12.41;100.00
45050;BME280;61798;48.048;-1.928;2023-04-20T10:47:56;100608.09;;;12.48;100.00
45050;BME280;61798;48.048;-1.928;2023-04-20T10:50:13;100632.88;;;12.98;100.00
45050;BME280;61798;48.048;-1.928;2023-04-20T10:52:42;100635.09;;;13.22;100.00
45050;BME280;61798;48.048;-1.928;2023-04-20T10:54:49;100618.63;;;12.91;100.00
45050;BME280;61798;48.048;-1.928;2023-04-20T10:56:56;100586.97;;;12.93;100.00